createdAt,value
2018-12-24T00:02:01.913Z,11.80
2018-12-24T00:04:30.457Z,11.80
2018-12-24T00:07:00.589Z,11.80
2018-12-24T00:09:29.202Z,11.80
2018-12-24T00:11:57.882Z,11.80
2018-12-24T00:14:26.402Z,11.70
2018-12-24T00:16:55.992Z,11.70
2018-12-24T00:19:24.530Z,11.70
2018-12-24T00:21:53.082Z,11.70
2018-12-24T00:24:23.536Z,11.70
2018-12-24T00:26:51.876Z,11.80
2018-12-24T00:29:20.411Z,11.80
2018-12-24T00:31:50.123Z,11.70
2018-12-24T00:34:18.647Z,11.70
2018-12-24T00:36:47.200Z,11.70
2018-12-24T00:39:15.787Z,11.80
2018-12-24T00:41:44.316Z,11.80
2018-12-24T00:44:14.393Z,11.80
2018-12-24T00:46:45.272Z,11.80
2018-12-24T00:49:13.815Z,11.80
2018-12-24T00:51:42.353Z,11.80
2018-12-24T00:54:10.970Z,11.80
2018-12-24T00:56:39.499Z,11.80
2018-12-24T00:59:08.039Z,11.80
2018-12-24T01:01:36.577Z,11.80
2018-12-24T01:04:05.112Z,11.90
2018-12-24T01:06:35.597Z,11.90
2018-12-24T01:09:04.783Z,11.90
2018-12-24T01:11:34.651Z,11.80
2018-12-24T01:14:04.011Z,11.80
2018-12-24T01:16:32.572Z,11.70
2018-12-24T01:19:01.097Z,11.70
2018-12-24T01:21:29.642Z,11.70
2018-12-24T01:23:58.243Z,11.30
2018-12-24T01:26:26.829Z,10.50
2018-12-24T01:28:55.392Z,10.00
2018-12-24T01:31:24.412Z,9.80
2018-12-24T01:33:54.018Z,9.70
2018-12-24T01:36:22.565Z,9.50
2018-12-24T01:38:51.189Z,9.50
2018-12-24T01:41:19.690Z,9.40
2018-12-24T01:43:48.316Z,9.40
2018-12-24T01:46:16.835Z,9.30
2018-12-24T01:48:45.428Z,9.40
2018-12-24T01:51:17.930Z,9.20
2018-12-24T01:53:46.449Z,9.20
2018-12-24T01:56:14.984Z,9.20
2018-12-24T01:58:44.507Z,9.20
2018-12-24T02:01:13.039Z,9.20
2018-12-24T02:03:41.580Z,9.20
2018-12-24T02:06:10.111Z,9.20
2018-12-24T02:08:38.627Z,9.20
2018-12-24T02:11:07.179Z,9.20
2018-12-24T02:13:35.976Z,9.20
2018-12-24T02:16:04.496Z,9.10
2018-12-24T02:18:33.039Z,9.20
2018-12-24T02:21:01.566Z,9.20
2018-12-24T02:23:30.087Z,9.10
2018-12-24T02:25:58.631Z,9.10
2018-12-24T02:28:27.148Z,8.90
2018-12-24T02:30:57.203Z,8.90
2018-12-24T02:33:28.089Z,8.90
2018-12-24T02:35:56.614Z,8.90
2018-12-24T02:38:25.646Z,8.80
2018-12-24T02:40:54.168Z,8.80
2018-12-24T02:43:23.989Z,8.70
2018-12-24T02:45:52.517Z,8.60
2018-12-24T02:48:21.064Z,8.40
2018-12-24T02:50:49.583Z,8.30
2018-12-24T02:53:18.116Z,8.20
2018-12-24T02:55:46.650Z,8.10
2018-12-24T03:00:48.631Z,7.90
2018-12-24T03:03:17.161Z,7.80
2018-12-24T03:05:45.756Z,7.70
2018-12-24T03:08:14.290Z,7.70
2018-12-24T03:10:44.460Z,7.60
2018-12-24T03:13:13.573Z,7.70
2018-12-24T03:15:42.098Z,7.70
2018-12-24T03:18:10.700Z,7.60
2018-12-24T03:20:39.232Z,7.60
2018-12-24T03:23:07.773Z,7.60
2018-12-24T03:25:36.314Z,7.60
2018-12-24T03:28:04.903Z,7.60
2018-12-24T03:30:33.461Z,7.60
2018-12-24T03:33:04.288Z,7.60
2018-12-24T03:35:32.816Z,7.60
2018-12-24T03:38:01.405Z,7.60
2018-12-24T03:40:32.832Z,7.50
2018-12-24T03:43:02.060Z,7.60
2018-12-24T03:45:30.576Z,7.60
2018-12-24T03:47:59.104Z,7.60
2018-12-24T03:50:27.640Z,7.60
2018-12-24T03:52:56.790Z,7.60
2018-12-24T03:55:28.368Z,7.50
2018-12-24T03:57:56.899Z,7.50
2018-12-24T04:00:27.594Z,7.50
2018-12-24T04:02:56.112Z,7.40
2018-12-24T04:05:24.632Z,7.40
2018-12-24T04:07:53.168Z,7.30
2018-12-24T04:10:21.692Z,7.30
2018-12-24T04:12:51.297Z,7.30
2018-12-24T04:15:20.655Z,7.10
2018-12-24T04:17:50.476Z,7.10
2018-12-24T04:20:19.015Z,6.90
2018-12-24T04:22:47.569Z,6.90
2018-12-24T04:25:16.180Z,6.90
2018-12-24T04:27:44.711Z,6.90
2018-12-24T04:30:16.089Z,6.80
2018-12-24T04:32:45.794Z,6.80
2018-12-24T04:35:14.445Z,6.70
2018-12-24T04:37:42.975Z,6.70
2018-12-24T04:40:11.565Z,6.70
2018-12-24T04:42:41.631Z,6.80
2018-12-24T04:45:10.229Z,6.70
2018-12-24T04:47:38.762Z,6.70
2018-12-24T04:50:07.288Z,6.70
2018-12-24T04:52:37.915Z,6.60
2018-12-24T04:55:06.471Z,6.60
2018-12-24T04:57:35.056Z,6.50
2018-12-24T05:00:04.540Z,6.50
2018-12-24T05:02:33.056Z,6.40
2018-12-24T05:05:01.582Z,6.30
2018-12-24T05:07:31.649Z,6.40
2018-12-24T05:10:46.595Z,6.40
2018-12-24T05:13:15.132Z,6.40
2018-12-24T05:15:47.687Z,6.40
2018-12-24T05:18:16.121Z,6.50
2018-12-24T05:20:44.629Z,6.50
2018-12-24T05:23:13.136Z,6.50
2018-12-24T05:25:41.557Z,6.40
2018-12-24T05:28:09.996Z,6.30
2018-12-24T05:30:38.425Z,6.20
2018-12-24T05:33:08.385Z,6.30
2018-12-24T05:35:36.832Z,6.30
2018-12-24T05:38:05.248Z,6.30
2018-12-24T05:40:33.700Z,6.30
2018-12-24T05:43:03.430Z,6.30
2018-12-24T05:45:31.854Z,6.30
2018-12-24T05:48:00.278Z,6.30
2018-12-24T05:50:28.729Z,6.30
2018-12-24T05:52:57.171Z,6.20
2018-12-24T05:55:25.593Z,6.10
2018-12-24T05:57:55.622Z,6.10
2018-12-24T06:00:24.027Z,6.20
2018-12-24T06:02:52.479Z,6.20
2018-12-24T06:05:20.903Z,6.20
2018-12-24T06:07:49.893Z,6.20
2018-12-24T06:10:18.339Z,6.20
2018-12-24T06:12:48.096Z,6.20
2018-12-24T06:15:16.533Z,6.20
2018-12-24T06:17:45.361Z,6.20
2018-12-24T06:20:13.866Z,6.20
2018-12-24T06:22:42.299Z,6.20
2018-12-24T06:25:10.817Z,6.10
2018-12-24T06:27:43.063Z,6.10
2018-12-24T06:30:11.487Z,6.10
2018-12-24T06:32:39.951Z,6.10
2018-12-24T06:35:08.756Z,6.20
2018-12-24T06:37:37.200Z,6.20
2018-12-24T06:40:06.365Z,6.20
2018-12-24T06:42:34.788Z,6.20
2018-12-24T06:45:03.253Z,6.20
2018-12-24T06:47:31.672Z,6.20
2018-12-24T06:50:00.151Z,6.20
2018-12-24T06:52:28.637Z,6.20
2018-12-24T06:54:57.121Z,6.10
2018-12-24T06:57:26.131Z,6.10
2018-12-24T06:59:54.553Z,6.10
2018-12-24T07:02:22.993Z,6.10
2018-12-24T07:04:52.964Z,6.10
2018-12-24T07:07:21.438Z,6.10
2018-12-24T07:09:49.860Z,6.10
2018-12-24T07:12:18.303Z,6.10
2018-12-24T07:14:46.742Z,6.10
2018-12-24T07:17:16.184Z,6.20
2018-12-24T07:19:44.624Z,6.10
2018-12-24T07:22:13.065Z,6.10
2018-12-24T07:24:41.512Z,6.10
2018-12-24T07:27:11.526Z,6.10
2018-12-24T07:29:40.012Z,6.10
2018-12-24T07:32:08.454Z,6.10
2018-12-24T07:34:36.902Z,6.10
2018-12-24T07:37:07.738Z,6.10
2018-12-24T07:39:36.164Z,6.10
2018-12-24T07:42:04.687Z,6.20
2018-12-24T07:44:35.052Z,6.30
2018-12-24T07:47:03.494Z,6.20
2018-12-24T07:49:31.936Z,6.30
2018-12-24T07:52:00.357Z,6.20
2018-12-24T07:54:28.796Z,6.20
2018-12-24T07:56:59.636Z,6.20
2018-12-24T07:59:29.621Z,6.20
2018-12-24T08:02:00.089Z,6.20
2018-12-24T08:04:28.891Z,6.20
2018-12-24T08:06:57.528Z,6.20
2018-12-24T08:09:28.787Z,6.20
2018-12-24T08:11:57.224Z,6.20
2018-12-24T08:14:32.897Z,6.20
2018-12-24T08:16:55.815Z,6.20
2018-12-24T08:19:24.546Z,6.20
2018-12-24T08:21:52.980Z,6.30
2018-12-24T08:24:22.955Z,6.20
2018-12-24T08:26:53.786Z,6.30
2018-12-24T08:29:23.999Z,6.20
2018-12-24T08:31:52.435Z,6.20
2018-12-24T08:34:20.884Z,6.20
2018-12-24T08:36:52.032Z,6.30
2018-12-24T08:39:20.461Z,6.30
2018-12-24T08:41:52.399Z,6.40
2018-12-24T08:44:20.876Z,6.40
2018-12-24T08:46:49.330Z,6.30
2018-12-24T08:49:17.869Z,6.30
2018-12-24T08:51:46.320Z,6.30
2018-12-24T08:54:14.748Z,6.30
2018-12-24T08:56:43.165Z,6.30
2018-12-24T08:59:12.987Z,6.20
2018-12-24T09:01:41.413Z,6.30
2018-12-24T09:04:11.452Z,6.30
2018-12-24T09:06:39.908Z,6.30
2018-12-24T09:09:10.752Z,6.30
2018-12-24T09:11:39.192Z,6.40
2018-12-24T09:14:07.617Z,6.40
2018-12-24T09:16:36.068Z,6.60
2018-12-24T09:19:05.181Z,6.70
2018-12-24T09:21:33.601Z,6.80
2018-12-24T09:24:02.040Z,7.00
2018-12-24T09:26:30.460Z,7.10
2018-12-24T09:28:59.840Z,7.40
2018-12-24T09:31:28.337Z,7.40
2018-12-24T09:33:56.804Z,7.50
2018-12-24T09:36:25.241Z,7.60
2018-12-24T09:38:53.679Z,7.80
2018-12-24T09:41:23.254Z,7.80
2018-12-24T09:43:51.661Z,7.90
2018-12-24T09:46:20.144Z,8.00
2018-12-24T09:48:48.577Z,8.10
2018-12-24T09:51:17.028Z,8.00
2018-12-24T09:53:45.458Z,8.00
2018-12-24T09:56:13.884Z,7.90
2018-12-24T09:58:42.324Z,8.00
2018-12-24T10:01:10.740Z,8.20
2018-12-24T10:03:39.261Z,8.90
2018-12-24T10:06:07.851Z,9.80
2018-12-24T10:08:36.331Z,10.30
2018-12-24T10:11:04.848Z,10.30
2018-12-24T10:13:33.280Z,10.80
2018-12-24T10:16:01.734Z,10.50
2018-12-24T10:18:30.303Z,10.50
2018-12-24T10:20:58.836Z,10.40
2018-12-24T10:23:30.160Z,10.80
2018-12-24T10:26:01.291Z,10.70
2018-12-24T10:28:29.749Z,10.50
2018-12-24T10:30:58.597Z,11.20
2018-12-24T10:33:28.428Z,12.70
2018-12-24T10:35:56.855Z,14.10
2018-12-24T10:38:26.664Z,15.10
2018-12-24T10:40:55.360Z,15.60
2018-12-24T10:43:23.924Z,16.80
2018-12-24T10:45:52.440Z,16.40
2018-12-24T10:48:20.875Z,16.00
2018-12-24T10:50:49.323Z,16.70
2018-12-24T10:53:17.753Z,16.90
2018-12-24T10:55:46.200Z,17.30
2018-12-24T10:58:14.635Z,16.70
2018-12-24T11:00:43.063Z,15.90
2018-12-24T11:03:14.288Z,15.10
2018-12-24T11:05:42.796Z,14.10
2018-12-24T11:08:11.246Z,14.30
2018-12-24T11:10:40.714Z,13.30
2018-12-24T11:13:09.161Z,12.90
2018-12-24T11:15:37.711Z,13.20
2018-12-24T11:18:06.150Z,13.90
2018-12-24T11:20:34.604Z,14.30
2018-12-24T11:23:03.027Z,13.90
2018-12-24T11:25:31.510Z,13.10
2018-12-24T11:27:59.978Z,12.80
2018-12-24T11:30:28.473Z,12.10
2018-12-24T11:32:56.983Z,11.40
2018-12-24T11:35:26.951Z,10.80
2018-12-24T11:37:55.386Z,10.40
2018-12-24T11:40:23.822Z,9.50
2018-12-24T11:42:52.267Z,9.20
2018-12-24T11:45:20.693Z,8.90
2018-12-24T11:47:49.163Z,8.80
2018-12-24T11:50:18.692Z,8.80
2018-12-24T11:52:47.129Z,8.70
2018-12-24T11:55:15.643Z,8.70
2018-12-24T11:57:44.068Z,8.70
2018-12-24T12:00:13.235Z,8.80
2018-12-24T12:02:41.752Z,8.90
2018-12-24T12:05:12.884Z,8.80
2018-12-24T12:07:41.323Z,8.70
2018-12-24T12:10:09.751Z,8.60
2018-12-24T12:12:38.197Z,8.60
2018-12-24T12:15:06.964Z,8.40
2018-12-24T12:17:37.182Z,8.40
2018-12-24T12:20:07.693Z,8.20
2018-12-24T12:22:36.312Z,8.10
2018-12-24T12:25:05.242Z,8.10
2018-12-24T12:27:36.527Z,8.00
2018-12-24T12:30:11.924Z,7.90
2018-12-24T12:32:41.239Z,7.90
2018-12-24T12:35:09.809Z,8.20
2018-12-24T12:37:39.630Z,8.40
2018-12-24T12:40:08.370Z,8.60
2018-12-24T12:42:37.428Z,8.80
2018-12-24T12:45:07.777Z,8.90
2018-12-24T12:47:37.969Z,9.10
2018-12-24T12:50:07.207Z,9.20
2018-12-24T12:52:37.199Z,9.20
2018-12-24T12:55:06.323Z,8.90
2018-12-24T12:57:34.754Z,9.00
2018-12-24T13:00:04.928Z,9.10
2018-12-24T13:02:33.370Z,9.20
2018-12-24T13:05:03.410Z,9.20
2018-12-24T13:07:31.853Z,9.10
2018-12-24T13:10:00.278Z,9.00
2018-12-24T13:12:28.742Z,8.70
2018-12-24T13:14:57.220Z,8.80
2018-12-24T13:17:25.676Z,8.70
2018-12-24T13:19:54.125Z,8.60
2018-12-24T13:22:22.543Z,8.60
2018-12-24T13:24:51.503Z,8.80
2018-12-24T13:27:19.913Z,8.90
2018-12-24T13:29:48.409Z,8.90
2018-12-24T13:32:18.066Z,8.50
2018-12-24T13:34:49.340Z,8.60
2018-12-24T13:37:17.861Z,8.50
2018-12-24T13:39:46.285Z,8.50
2018-12-24T13:42:17.444Z,8.40
2018-12-24T13:44:45.872Z,8.20
2018-12-24T13:47:14.300Z,8.40
2018-12-24T13:49:42.752Z,8.10
2018-12-24T13:52:11.184Z,7.80
2018-12-24T13:54:39.637Z,7.60
2018-12-24T13:57:08.140Z,7.40
2018-12-24T13:59:38.296Z,7.10
2018-12-24T14:02:06.832Z,7.10
2018-12-24T14:04:35.255Z,7.20
2018-12-24T14:07:04.401Z,7.30
2018-12-24T14:09:34.365Z,7.30
2018-12-24T14:12:02.801Z,7.10
2018-12-24T14:14:31.308Z,7.10
2018-12-24T14:16:59.736Z,6.90
2018-12-24T14:19:28.178Z,6.80
2018-12-24T14:21:56.634Z,6.80
2018-12-24T14:24:27.594Z,6.60
2018-12-24T14:26:57.168Z,6.60
2018-12-24T14:29:25.668Z,6.60
2018-12-24T14:31:54.107Z,6.50
2018-12-24T14:34:23.539Z,6.40
2018-12-24T14:36:53.354Z,6.40
2018-12-24T14:39:21.776Z,6.30
2018-12-24T14:41:50.220Z,6.10
2018-12-24T14:44:18.665Z,6.10
2018-12-24T14:46:48.458Z,6.00
2018-12-24T14:49:17.972Z,5.90
2018-12-24T14:51:48.738Z,5.90
2018-12-24T14:54:17.153Z,5.80
2018-12-24T14:56:47.239Z,5.80
2018-12-24T14:59:19.186Z,5.80
2018-12-24T15:01:47.282Z,5.70
2018-12-24T15:04:17.237Z,5.60
2018-12-24T15:06:47.221Z,5.60
2018-12-24T15:09:18.885Z,5.40
2018-12-24T15:11:47.324Z,5.30
2018-12-24T15:14:16.433Z,5.20
2018-12-24T15:16:44.878Z,5.10
2018-12-24T15:19:14.340Z,5.00
2018-12-24T15:21:42.763Z,4.90
2018-12-24T15:24:11.297Z,4.80
2018-12-24T15:26:39.962Z,4.70
2018-12-24T15:29:08.380Z,4.70
2018-12-24T15:31:37.792Z,4.80
2018-12-24T15:34:06.231Z,4.80
2018-12-24T15:36:34.688Z,4.80
2018-12-24T15:39:06.910Z,5.00
2018-12-24T15:41:35.425Z,5.00
2018-12-24T15:44:03.856Z,4.90
2018-12-24T15:46:32.286Z,5.10
2018-12-24T15:49:00.732Z,5.40
2018-12-24T15:51:29.210Z,5.40
2018-12-24T15:53:58.740Z,5.50
2018-12-24T15:56:27.177Z,5.60
2018-12-24T15:58:55.630Z,5.70
2018-12-24T16:01:24.066Z,5.70
2018-12-24T16:03:53.824Z,5.70
2018-12-24T16:06:22.294Z,5.70
2018-12-24T16:08:51.788Z,5.70
2018-12-24T16:11:20.241Z,5.70
2018-12-24T16:13:48.695Z,5.70
2018-12-24T16:16:17.132Z,5.70
2018-12-24T16:18:46.908Z,5.60
2018-12-24T16:21:15.333Z,5.50
2018-12-24T16:23:43.776Z,5.50
2018-12-24T16:26:13.770Z,5.40
2018-12-24T16:28:43.484Z,5.20
2018-12-24T16:31:11.910Z,5.00
2018-12-24T16:33:40.356Z,4.90
2018-12-24T16:36:10.422Z,4.80
2018-12-24T16:38:38.937Z,4.80
2018-12-24T16:41:07.382Z,4.80
2018-12-24T16:43:35.874Z,4.80
2018-12-24T16:46:05.207Z,4.80
2018-12-24T16:48:33.640Z,4.90
2018-12-24T16:51:02.092Z,4.90
2018-12-24T16:53:30.529Z,4.90
2018-12-24T16:56:00.451Z,4.80
2018-12-24T16:58:31.272Z,4.80
2018-12-24T17:00:59.772Z,4.70
2018-12-24T17:03:28.211Z,4.50
2018-12-24T17:05:56.635Z,4.40
2018-12-24T17:08:25.132Z,4.30
2018-12-24T17:10:55.061Z,4.20
2018-12-24T17:13:23.526Z,4.20
2018-12-24T17:15:51.966Z,4.10
2018-12-24T17:18:20.388Z,4.20
2018-12-24T17:20:50.374Z,4.20
2018-12-24T17:23:20.339Z,4.20
2018-12-24T17:25:50.219Z,4.10
2018-12-24T17:28:18.712Z,4.10
2018-12-24T17:30:47.133Z,4.10
2018-12-24T17:33:15.583Z,4.10
2018-12-24T17:35:44.004Z,4.10
2018-12-24T17:38:12.453Z,3.90
2018-12-24T17:40:41.948Z,3.90
2018-12-24T17:43:10.376Z,3.90
2018-12-24T17:45:38.854Z,3.90
2018-12-24T17:48:07.295Z,4.00
2018-12-24T17:50:35.732Z,4.00
2018-12-24T17:53:04.244Z,4.00
2018-12-24T17:55:34.241Z,4.00
2018-12-24T17:58:02.684Z,3.90
2018-12-24T18:00:32.646Z,3.90
2018-12-24T18:03:01.427Z,4.00
2018-12-24T18:05:29.868Z,4.10
2018-12-24T18:07:58.376Z,4.10
2018-12-24T18:10:28.572Z,4.20
2018-12-24T18:12:58.560Z,4.10
2018-12-24T18:15:26.995Z,4.00
2018-12-24T18:17:55.426Z,4.10
2018-12-24T18:20:25.240Z,4.10
2018-12-24T18:22:53.662Z,4.10
2018-12-24T18:25:22.391Z,4.10
2018-12-24T18:27:50.812Z,4.00
2018-12-24T18:30:19.266Z,4.00
2018-12-24T18:32:48.728Z,4.00
2018-12-24T18:35:17.160Z,3.90
2018-12-24T18:37:46.985Z,3.90
2018-12-24T18:40:15.412Z,3.90
2018-12-24T18:42:43.855Z,3.80
2018-12-24T18:45:12.355Z,3.60
2018-12-24T18:47:40.821Z,3.60
2018-12-24T18:50:11.325Z,3.40
2018-12-24T18:52:39.752Z,3.30
2018-12-24T18:55:09.037Z,3.10
2018-12-24T18:57:37.499Z,3.00
2018-12-24T19:00:09.250Z,3.00
2018-12-24T19:02:37.703Z,3.10
2018-12-24T19:05:08.971Z,3.10
2018-12-24T19:07:37.544Z,3.20
2018-12-24T19:10:08.880Z,3.00
2018-12-24T19:12:38.238Z,3.00
2018-12-24T19:15:07.140Z,2.80
2018-12-24T19:17:41.376Z,2.70
2018-12-24T19:20:07.970Z,2.60
2018-12-24T19:22:36.796Z,2.60
2018-12-24T19:25:05.546Z,2.40
2018-12-24T19:27:35.070Z,2.40
2018-12-24T19:30:03.857Z,2.50
2018-12-24T19:32:33.808Z,2.60
2018-12-24T19:35:02.273Z,2.70
2018-12-24T19:37:31.038Z,2.70
2018-12-24T19:40:02.587Z,2.50
2018-12-24T19:42:31.576Z,2.60
2018-12-24T19:45:01.558Z,2.50
2018-12-24T19:47:31.543Z,2.40
2018-12-24T19:49:59.980Z,2.40
2018-12-24T19:52:29.700Z,2.30
2018-12-24T19:55:00.890Z,2.40
2018-12-24T19:57:29.427Z,2.40
2018-12-24T19:59:57.871Z,2.40
2018-12-24T20:02:26.307Z,2.20
2018-12-24T20:04:55.175Z,2.00
2018-12-24T20:07:23.649Z,1.80
2018-12-24T20:09:53.289Z,1.70
2018-12-24T20:12:21.872Z,1.60
2018-12-24T20:14:51.352Z,1.50
2018-12-24T20:17:19.779Z,1.30
2018-12-24T20:19:49.300Z,1.20
2018-12-24T20:22:20.240Z,1.20
2018-12-24T20:24:48.672Z,1.40
2018-12-24T20:27:18.659Z,1.50
2018-12-24T20:29:47.096Z,1.60
2018-12-24T20:32:15.526Z,1.80
2018-12-24T20:34:43.966Z,1.90
2018-12-24T20:37:12.405Z,1.90
2018-12-24T20:39:41.995Z,1.90
2018-12-24T20:42:10.418Z,1.90
2018-12-24T20:44:38.870Z,2.00
2018-12-24T20:47:08.824Z,2.00
2018-12-24T20:49:37.716Z,2.00
2018-12-24T20:52:06.159Z,2.00
2018-12-24T20:54:34.580Z,2.00
2018-12-24T20:57:03.373Z,1.70
2018-12-24T20:59:31.874Z,1.50
2018-12-24T21:02:00.868Z,1.40
2018-12-24T21:04:29.304Z,1.30
2018-12-24T21:06:59.324Z,1.20
2018-12-24T21:09:27.765Z,1.10
2018-12-24T21:11:58.350Z,1.00
2018-12-24T21:14:26.895Z,1.00
2018-12-24T21:16:56.568Z,0.90
2018-12-24T21:19:29.566Z,0.80
2018-12-24T21:21:55.173Z,0.80
2018-12-24T21:24:23.675Z,0.60
2018-12-24T21:26:58.276Z,0.70
2018-12-24T21:29:26.792Z,0.80
2018-12-24T21:31:55.236Z,0.90
2018-12-24T21:34:23.698Z,1.00
2018-12-24T21:36:53.189Z,1.10
2018-12-24T21:39:21.642Z,1.10
2018-12-24T21:41:50.062Z,0.90
2018-12-24T21:44:18.554Z,0.80
2018-12-24T21:46:46.993Z,0.70
2018-12-24T21:49:16.814Z,0.70
2018-12-24T21:51:46.979Z,0.70
2018-12-24T21:54:15.401Z,0.60
2018-12-24T21:56:45.419Z,0.50
2018-12-24T21:59:14.420Z,0.50
2018-12-24T22:01:42.839Z,0.40
2018-12-24T22:04:11.845Z,0.40
2018-12-24T22:06:40.278Z,0.30
2018-12-24T22:09:10.777Z,0.20
2018-12-24T22:11:39.200Z,0.20
2018-12-24T22:14:07.648Z,0.10
2018-12-24T22:16:36.082Z,0.30
2018-12-24T22:19:04.527Z,0.40
2018-12-24T22:21:32.987Z,0.40
2018-12-24T22:24:01.550Z,0.40
2018-12-24T22:26:31.543Z,0.40
2018-12-24T22:29:00.651Z,0.40
2018-12-24T22:31:29.103Z,0.40
2018-12-24T22:33:57.598Z,0.40
2018-12-24T22:36:26.017Z,0.40
2018-12-24T22:38:54.743Z,0.60
2018-12-24T22:41:23.207Z,0.50
2018-12-24T22:43:51.720Z,0.50
2018-12-24T22:46:20.144Z,0.60
2018-12-24T22:48:50.076Z,0.70
2018-12-24T22:51:18.491Z,0.60
2018-12-24T22:53:48.028Z,0.60
2018-12-24T22:56:17.493Z,0.60
2018-12-24T22:58:45.942Z,0.50
2018-12-24T23:01:14.519Z,0.40
2018-12-24T23:03:42.938Z,0.40
2018-12-24T23:06:13.012Z,0.10
2018-12-24T23:08:41.454Z,0.00
2018-12-24T23:11:09.884Z,-0.10
2018-12-24T23:13:39.872Z,-0.30
2018-12-24T23:16:08.299Z,-0.40
2018-12-24T23:18:36.757Z,-0.40
2018-12-24T23:21:05.172Z,-0.50
2018-12-24T23:23:33.607Z,-0.50
2018-12-24T23:26:03.401Z,-0.50
2018-12-24T23:28:31.824Z,-0.50
2018-12-24T23:31:00.284Z,-0.40
2018-12-24T23:33:29.801Z,-0.20
2018-12-24T23:36:00.696Z,0.00
2018-12-24T23:38:29.128Z,0.10
2018-12-24T23:40:57.595Z,0.30
2018-12-24T23:43:26.100Z,0.30
2018-12-24T23:45:54.894Z,0.30
2018-12-24T23:48:23.340Z,0.40
2018-12-24T23:50:54.044Z,0.30
2018-12-24T23:53:22.468Z,0.50
2018-12-24T23:55:50.910Z,0.40
2018-12-24T23:58:19.338Z,0.30
